sensor_id;sensor_type;location;lat;lon;timestamp;pressure;altitude;pressure_sealevel;temperature;humidity
216;BME280;64590;48.81286795;9.14184224;2023-04-16T00:00:50;98189.63;;;7.27;97.68
216;BME280;64590;48.81286795;9.14184224;2023-04-16T00:03:17;98195.25;;;7.34;97.40
216;BME280;64590;48.81286795;9.14184224;2023-04-16T00:05:43;98192.88;;;7.33;97.44
216;BME280;64590;48.81286795;9.14184224;2023-04-16T00:08:12;98191.22;;;7.28;96.97
216;BME280;64590;48.81286795;9.14184224;2023-04-16T00:10:38;98185.38;;;7.33;97.19
216;BME280;64590;48.81286795;9.14184224;2023-04-16T00:13:05;98189.75;;;7.38;96.46
216;BME280;64590;48.81286795;9.14184224;2023-04-16T00:15:31;98192.50;;;7.34;97.24
216;BME280;64590;48.81286795;9.14184224;2023-04-16T00:17:58;98187.81;;;7.39;97.28
216;BME280;64590;48.81286795;9.14184224;2023-04-16T00:20:25;98194.06;;;7.35;97.36
216;BME280;64590;48.81286795;9.14184224;2023-04-16T00:22:51;98196.09;;;7.39;97.37
216;BME280;64590;48.81286795;9.14184224;2023-04-16T00:25:19;98198.63;;;7.51;97.00
216;BME280;64590;48.81286795;9.14184224;2023-04-16T00:27:46;98199.59;;;7.35;97.10
216;BME280;64590;48.81286795;9.14184224;2023-04-16T00:30:12;98197.75;;;7.47;96.77
216;BME280;64590;48.81286795;9.14184224;2023-04-16T00:32:39;98173.31;;;7.15;97.09
216;BME280;64590;48.81286795;9.14184224;2023-04-16T00:35:06;98195.63;;;7.33;97.96
216;BME280;64590;48.81286795;9.14184224;2023-04-16T00:37:33;98204.31;;;7.35;96.95
216;BME280;64590;48.81286795;9.14184224;2023-04-16T00:39:59;98200.78;;;7.34;97.30
216;BME280;64590;48.81286795;9.14184224;2023-04-16T00:42:28;98204.16;;;7.54;97.00
216;BME280;64590;48.81286795;9.14184224;2023-04-16T00:44:54;98203.44;;;7.27;96.92
216;BME280;64590;48.81286795;9.14184224;2023-04-16T00:47:21;98199.09;;;7.26;96.89
216;BME280;64590;48.81286795;9.14184224;2023-04-16T00:49:48;98198.97;;;7.19;97.48
216;BME280;64590;48.81286795;9.14184224;2023-04-16T00:52:14;98200.81;;;7.38;97.03
216;BME280;64590;48.81286795;9.14184224;2023-04-16T00:54:41;98201.00;;;7.22;96.82
216;BME280;64590;48.81286795;9.14184224;2023-04-16T00:57:08;98198.38;;;7.33;96.68
216;BME280;64590;48.81286795;9.14184224;2023-04-16T00:59:36;98204.38;;;7.39;96.81
216;BME280;64590;48.81286795;9.14184224;2023-04-16T01:02:03;98204.66;;;7.30;96.94
216;BME280;64590;48.81286795;9.14184224;2023-04-16T01:04:30;98201.09;;;7.29;97.45
216;BME280;64590;48.81286795;9.14184224;2023-04-16T01:06:58;98208.84;;;7.20;97.10
216;BME280;64590;48.81286795;9.14184224;2023-04-16T01:09:25;98203.81;;;7.26;97.57
216;BME280;64590;48.81286795;9.14184224;2023-04-16T01:11:51;98198.66;;;7.24;97.85
216;BME280;64590;48.81286795;9.14184224;2023-04-16T01:14:18;98202.34;;;7.35;96.97
216;BME280;64590;48.81286795;9.14184224;2023-04-16T01:16:46;98209.06;;;7.34;97.48
216;BME280;64590;48.81286795;9.14184224;2023-04-16T01:19:12;98207.47;;;7.33;97.21
216;BME280;64590;48.81286795;9.14184224;2023-04-16T01:21:41;98198.38;;;7.33;96.90
216;BME280;64590;48.81286795;9.14184224;2023-04-16T01:24:07;98209.22;;;7.19;97.05
216;BME280;64590;48.81286795;9.14184224;2023-04-16T01:26:34;98203.81;;;7.26;97.34
216;BME280;64590;48.81286795;9.14184224;2023-04-16T01:29:01;98208.56;;;7.29;96.92
216;BME280;64590;48.81286795;9.14184224;2023-04-16T01:31:28;98204.28;;;7.31;96.53
216;BME280;64590;48.81286795;9.14184224;2023-04-16T01:34:08;98221.38;;;7.41;96.69
216;BME280;64590;48.81286795;9.14184224;2023-04-16T01:36:35;98214.06;;;7.25;96.97
216;BME280;64590;48.81286795;9.14184224;2023-04-16T01:39:03;98219.19;;;7.27;96.79
216;BME280;64590;48.81286795;9.14184224;2023-04-16T01:41:30;98207.94;;;7.39;97.33
216;BME280;64590;48.81286795;9.14184224;2023-04-16T01:43:56;98214.19;;;7.36;97.41
216;BME280;64590;48.81286795;9.14184224;2023-04-16T01:46:27;98222.75;;;7.27;97.00
216;BME280;64590;48.81286795;9.14184224;2023-04-16T01:48:54;98222.66;;;7.20;97.11
216;BME280;64590;48.81286795;9.14184224;2023-04-16T01:51:21;98219.97;;;7.24;97.81
216;BME280;64590;48.81286795;9.14184224;2023-04-16T01:53:48;98226.00;;;7.33;97.57
216;BME280;64590;48.81286795;9.14184224;2023-04-16T01:56:16;98221.59;;;7.28;97.18
216;BME280;64590;48.81286795;9.14184224;2023-04-16T01:58:42;98218.19;;;7.39;97.97
216;BME280;64590;48.81286795;9.14184224;2023-04-16T02:01:11;98222.09;;;7.37;97.67
216;BME280;64590;48.81286795;9.14184224;2023-04-16T02:03:39;98220.09;;;7.34;96.66
216;BME280;64590;48.81286795;9.14184224;2023-04-16T02:06:06;98219.25;;;7.30;97.32
216;BME280;64590;48.81286795;9.14184224;2023-04-16T02:08:33;98220.00;;;7.27;97.97
216;BME280;64590;48.81286795;9.14184224;2023-04-16T02:11:00;98214.81;;;7.22;97.13
216;BME280;64590;48.81286795;9.14184224;2023-04-16T02:13:28;98223.13;;;7.26;97.63
216;BME280;64590;48.81286795;9.14184224;2023-04-16T02:15:55;98226.69;;;7.26;97.42
216;BME280;64590;48.81286795;9.14184224;2023-04-16T02:18:48;98218.59;;;7.41;97.32
216;BME280;64590;48.81286795;9.14184224;2023-04-16T02:21:16;98223.66;;;7.35;97.31
216;BME280;64590;48.81286795;9.14184224;2023-04-16T02:23:44;98229.16;;;7.35;96.90
216;BME280;64590;48.81286795;9.14184224;2023-04-16T02:26:12;98223.50;;;7.24;97.30
216;BME280;64590;48.81286795;9.14184224;2023-04-16T02:28:40;98230.13;;;7.20;97.77
216;BME280;64590;48.81286795;9.14184224;2023-04-16T02:31:09;98223.56;;;7.28;97.68
216;BME280;64590;48.81286795;9.14184224;2023-04-16T02:33:40;98225.50;;;7.27;97.02
216;BME280;64590;48.81286795;9.14184224;2023-04-16T02:36:07;98212.41;;;7.21;97.20
216;BME280;64590;48.81286795;9.14184224;2023-04-16T02:38:35;98232.22;;;7.26;97.43
216;BME280;64590;48.81286795;9.14184224;2023-04-16T02:41:02;98207.63;;;7.18;97.30
216;BME280;64590;48.81286795;9.14184224;2023-04-16T02:43:29;98223.66;;;7.35;97.26
216;BME280;64590;48.81286795;9.14184224;2023-04-16T02:45:57;98218.03;;;7.28;97.60
216;BME280;64590;48.81286795;9.14184224;2023-04-16T02:48:24;98227.09;;;7.28;97.37
216;BME280;64590;48.81286795;9.14184224;2023-04-16T02:50:50;98232.56;;;7.21;97.73
216;BME280;64590;48.81286795;9.14184224;2023-04-16T02:53:17;98223.81;;;7.19;98.23
216;BME280;64590;48.81286795;9.14184224;2023-04-16T02:55:48;98229.41;;;7.23;98.30
216;BME280;64590;48.81286795;9.14184224;2023-04-16T02:58:16;98227.03;;;7.21;97.84
216;BME280;64590;48.81286795;9.14184224;2023-04-16T03:00:43;98217.38;;;7.08;98.26
216;BME280;64590;48.81286795;9.14184224;2023-04-16T03:03:11;98238.16;;;7.28;97.79
216;BME280;64590;48.81286795;9.14184224;2023-04-16T03:05:37;98238.50;;;7.23;97.78
216;BME280;64590;48.81286795;9.14184224;2023-04-16T03:08:04;98247.16;;;7.22;98.31
216;BME280;64590;48.81286795;9.14184224;2023-04-16T03:10:31;98236.78;;;7.15;98.18
216;BME280;64590;48.81286795;9.14184224;2023-04-16T03:12:59;98240.91;;;7.28;98.00
216;BME280;64590;48.81286795;9.14184224;2023-04-16T03:15:26;98237.50;;;7.12;98.07
216;BME280;64590;48.81286795;9.14184224;2023-04-16T03:17:52;98236.38;;;7.13;99.01
216;BME280;64590;48.81286795;9.14184224;2023-04-16T03:20:20;98236.78;;;7.15;98.56
216;BME280;64590;48.81286795;9.14184224;2023-04-16T03:22:47;98235.94;;;7.11;99.26
216;BME280;64590;48.81286795;9.14184224;2023-04-16T03:25:14;98242.72;;;7.17;98.67
216;BME280;64590;48.81286795;9.14184224;2023-04-16T03:27:40;98220.41;;;6.99;98.12
216;BME280;64590;48.81286795;9.14184224;2023-04-16T03:30:10;98244.16;;;7.07;98.90
216;BME280;64590;48.81286795;9.14184224;2023-04-16T03:32:37;98255.59;;;7.06;99.04
216;BME280;64590;48.81286795;9.14184224;2023-04-16T03:35:05;98246.97;;;7.11;100.00
216;BME280;64590;48.81286795;9.14184224;2023-04-16T03:37:33;98258.81;;;7.12;99.53
216;BME280;64590;48.81286795;9.14184224;2023-04-16T03:40:00;98246.63;;;7.13;98.63
216;BME280;64590;48.81286795;9.14184224;2023-04-16T03:42:30;98254.53;;;7.14;98.65
216;BME280;64590;48.81286795;9.14184224;2023-04-16T03:44:56;98257.31;;;7.18;98.85
216;BME280;64590;48.81286795;9.14184224;2023-04-16T03:47:23;98254.44;;;7.11;98.45
216;BME280;64590;48.81286795;9.14184224;2023-04-16T03:49:53;98251.91;;;6.98;99.21
216;BME280;64590;48.81286795;9.14184224;2023-04-16T03:52:20;98252.06;;;7.09;99.21
216;BME280;64590;48.81286795;9.14184224;2023-04-16T03:54:48;98269.38;;;7.06;98.86
216;BME280;64590;48.81286795;9.14184224;2023-04-16T03:57:23;98265.03;;;7.05;98.71
216;BME280;64590;48.81286795;9.14184224;2023-04-16T03:59:52;98266.34;;;7.15;99.03
216;BME280;64590;48.81286795;9.14184224;2023-04-16T04:02:20;98267.41;;;7.06;98.85
216;BME280;64590;48.81286795;9.14184224;2023-04-16T04:04:46;98257.84;;;7.00;98.99
216;BME280;64590;48.81286795;9.14184224;2023-04-16T04:07:14;98268.50;;;7.02;99.43
216;BME280;64590;48.81286795;9.14184224;2023-04-16T04:09:41;98260.78;;;7.11;99.46
216;BME280;64590;48.81286795;9.14184224;2023-04-16T04:12:09;98266.56;;;7.02;98.54
216;BME280;64590;48.81286795;9.14184224;2023-04-16T04:14:37;98266.81;;;6.94;99.21
216;BME280;64590;48.81286795;9.14184224;2023-04-16T04:17:05;98270.75;;;6.93;99.68
216;BME280;64590;48.81286795;9.14184224;2023-04-16T04:19:32;98267.97;;;6.93;99.89
216;BME280;64590;48.81286795;9.14184224;2023-04-16T04:21:58;98277.84;;;6.94;99.87
216;BME280;64590;48.81286795;9.14184224;2023-04-16T04:24:25;98268.88;;;7.00;99.81
216;BME280;64590;48.81286795;9.14184224;2023-04-16T04:26:52;98279.13;;;7.00;99.42
216;BME280;64590;48.81286795;9.14184224;2023-04-16T04:29:20;98277.78;;;7.13;99.49
216;BME280;64590;48.81286795;9.14184224;2023-04-16T04:31:47;98278.03;;;7.04;99.20
216;BME280;64590;48.81286795;9.14184224;2023-04-16T04:34:14;98288.31;;;7.07;98.67
216;BME280;64590;48.81286795;9.14184224;2023-04-16T04:36:41;98283.75;;;6.92;99.51
216;BME280;64590;48.81286795;9.14184224;2023-04-16T04:39:07;98288.41;;;6.88;99.67
216;BME280;64590;48.81286795;9.14184224;2023-04-16T04:41:34;98282.81;;;6.85;99.78
216;BME280;64590;48.81286795;9.14184224;2023-04-16T04:44:01;98293.19;;;6.91;99.46
216;BME280;64590;48.81286795;9.14184224;2023-04-16T04:46:29;98271.78;;;6.85;99.02
216;BME280;64590;48.81286795;9.14184224;2023-04-16T04:48:56;98298.44;;;7.00;99.88
216;BME280;64590;48.81286795;9.14184224;2023-04-16T04:51:22;98294.94;;;7.03;99.72
216;BME280;64590;48.81286795;9.14184224;2023-04-16T04:53:49;98299.50;;;6.92;99.50
216;BME280;64590;48.81286795;9.14184224;2023-04-16T04:56:15;98299.91;;;6.94;99.55
216;BME280;64590;48.81286795;9.14184224;2023-04-16T04:58:42;98303.00;;;6.89;99.94
216;BME280;64590;48.81286795;9.14184224;2023-04-16T05:01:08;98303.38;;;6.87;99.90
216;BME280;64590;48.81286795;9.14184224;2023-04-16T05:03:36;98308.91;;;6.87;99.66
216;BME280;64590;48.81286795;9.14184224;2023-04-16T05:06:03;98308.16;;;6.90;99.75
216;BME280;64590;48.81286795;9.14184224;2023-04-16T05:08:30;98305.03;;;6.92;99.64
216;BME280;64590;48.81286795;9.14184224;2023-04-16T05:10:57;98316.19;;;6.99;99.51
216;BME280;64590;48.81286795;9.14184224;2023-04-16T05:13:23;98318.31;;;6.86;99.12
216;BME280;64590;48.81286795;9.14184224;2023-04-16T05:15:50;98330.91;;;6.84;99.96
216;BME280;64590;48.81286795;9.14184224;2023-04-16T05:18:17;98319.38;;;6.78;100.00
216;BME280;64590;48.81286795;9.14184224;2023-04-16T05:20:44;98328.44;;;7.01;100.00
216;BME280;64590;48.81286795;9.14184224;2023-04-16T05:23:11;98331.31;;;6.86;100.00
216;BME280;64590;48.81286795;9.14184224;2023-04-16T05:25:39;98331.06;;;6.94;100.00
216;BME280;64590;48.81286795;9.14184224;2023-04-16T05:28:06;98340.75;;;6.85;100.00
216;BME280;64590;48.81286795;9.14184224;2023-04-16T05:30:33;98347.94;;;6.89;100.00
216;BME280;64590;48.81286795;9.14184224;2023-04-16T05:32:59;98347.06;;;6.85;100.00
216;BME280;64590;48.81286795;9.14184224;2023-04-16T05:35:26;98339.72;;;6.93;100.00
216;BME280;64590;48.81286795;9.14184224;2023-04-16T05:37:54;98349.59;;;6.94;100.00
216;BME280;64590;48.81286795;9.14184224;2023-04-16T05:40:20;98349.97;;;6.92;100.00
216;BME280;64590;48.81286795;9.14184224;2023-04-16T05:42:47;98353.88;;;6.91;100.00
216;BME280;64590;48.81286795;9.14184224;2023-04-16T05:45:14;98355.97;;;6.98;100.00
216;BME280;64590;48.81286795;9.14184224;2023-04-16T05:47:40;98359.47;;;6.95;100.00
216;BME280;64590;48.81286795;9.14184224;2023-04-16T05:50:07;98356.09;;;7.05;100.00
216;BME280;64590;48.81286795;9.14184224;2023-04-16T05:52:34;98356.91;;;7.05;100.00
216;BME280;64590;48.81286795;9.14184224;2023-04-16T05:55:02;98369.47;;;7.03;100.00
216;BME280;64590;48.81286795;9.14184224;2023-04-16T05:57:29;98371.06;;;7.04;100.00
216;BME280;64590;48.81286795;9.14184224;2023-04-16T05:59:56;98364.31;;;7.01;100.00
216;BME280;64590;48.81286795;9.14184224;2023-04-16T06:02:22;98363.50;;;7.01;100.00
216;BME280;64590;48.81286795;9.14184224;2023-04-16T06:04:49;98375.06;;;7.06;99.75
216;BME280;64590;48.81286795;9.14184224;2023-04-16T06:07:15;98368.31;;;7.04;99.67
216;BME280;64590;48.81286795;9.14184224;2023-04-16T06:09:43;98370.94;;;6.97;99.73
216;BME280;64590;48.81286795;9.14184224;2023-04-16T06:12:11;98377.69;;;6.99;99.89
216;BME280;64590;48.81286795;9.14184224;2023-04-16T06:14:38;98380.25;;;7.12;99.86
216;BME280;64590;48.81286795;9.14184224;2023-04-16T06:17:04;98377.97;;;6.94;99.55
216;BME280;64590;48.81286795;9.14184224;2023-04-16T06:19:31;98373.88;;;7.07;99.25
216;BME280;64590;48.81286795;9.14184224;2023-04-16T06:21:57;98381.66;;;7.02;99.76
216;BME280;64590;48.81286795;9.14184224;2023-04-16T06:24:24;98381.53;;;6.95;99.99
216;BME280;64590;48.81286795;9.14184224;2023-04-16T06:26:51;98370.50;;;6.95;99.74
216;BME280;64590;48.81286795;9.14184224;2023-04-16T06:29:19;98379.94;;;6.94;100.00
216;BME280;64590;48.81286795;9.14184224;2023-04-16T06:31:46;98379.44;;;7.11;99.39
216;BME280;64590;48.81286795;9.14184224;2023-04-16T06:34:13;98381.00;;;7.08;100.00
216;BME280;64590;48.81286795;9.14184224;2023-04-16T06:36:40;98388.19;;;7.13;99.53
216;BME280;64590;48.81286795;9.14184224;2023-04-16T06:39:06;98379.66;;;7.22;98.98
216;BME280;64590;48.81286795;9.14184224;2023-04-16T06:41:33;98381.97;;;7.20;99.68
216;BME280;64590;48.81286795;9.14184224;2023-04-16T06:44:00;98390.16;;;7.13;98.84
216;BME280;64590;48.81286795;9.14184224;2023-04-16T06:46:28;98394.00;;;7.08;98.71
216;BME280;64590;48.81286795;9.14184224;2023-04-16T06:48:54;98394.50;;;7.14;98.93
216;BME280;64590;48.81286795;9.14184224;2023-04-16T06:51:21;98399.22;;;7.13;99.24
216;BME280;64590;48.81286795;9.14184224;2023-04-16T06:53:48;98395.97;;;7.07;99.23
216;BME280;64590;48.81286795;9.14184224;2023-04-16T06:56:14;98400.31;;;7.08;98.97
216;BME280;64590;48.81286795;9.14184224;2023-04-16T06:58:41;98401.28;;;7.20;98.76
216;BME280;64590;48.81286795;9.14184224;2023-04-16T07:01:08;98395.72;;;7.16;98.83
216;BME280;64590;48.81286795;9.14184224;2023-04-16T07:03:36;98398.28;;;7.28;98.52
216;BME280;64590;48.81286795;9.14184224;2023-04-16T07:06:03;98407.84;;;7.34;97.66
216;BME280;64590;48.81286795;9.14184224;2023-04-16T07:08:29;98404.91;;;7.24;97.78
216;BME280;64590;48.81286795;9.14184224;2023-04-16T07:10:56;98411.66;;;7.26;98.04
216;BME280;64590;48.81286795;9.14184224;2023-04-16T07:13:23;98408.59;;;7.31;98.06
216;BME280;64590;48.81286795;9.14184224;2023-04-16T07:15:50;98408.59;;;7.31;97.48
216;BME280;64590;48.81286795;9.14184224;2023-04-16T07:18:17;98415.88;;;7.20;98.09
216;BME280;64590;48.81286795;9.14184224;2023-04-16T07:20:45;98410.31;;;7.17;98.28
216;BME280;64590;48.81286795;9.14184224;2023-04-16T07:23:12;98411.97;;;7.21;97.82
216;BME280;64590;48.81286795;9.14184224;2023-04-16T07:25:38;98419.69;;;7.35;97.71
216;BME280;64590;48.81286795;9.14184224;2023-04-16T07:28:06;98417.56;;;7.25;97.94
216;BME280;64590;48.81286795;9.14184224;2023-04-16T07:30:32;98410.31;;;7.40;97.77
216;BME280;64590;48.81286795;9.14184224;2023-04-16T07:33:01;98428.19;;;7.23;97.65
216;BME280;64590;48.81286795;9.14184224;2023-04-16T07:35:28;98410.38;;;7.20;97.85
216;BME280;64590;48.81286795;9.14184224;2023-04-16T07:37:56;98427.97;;;7.35;97.96
216;BME280;64590;48.81286795;9.14184224;2023-04-16T07:40:23;98408.66;;;7.35;97.33
216;BME280;64590;48.81286795;9.14184224;2023-04-16T07:42:49;98432.16;;;7.25;97.28
216;BME280;64590;48.81286795;9.14184224;2023-04-16T07:45:16;98427.19;;;7.34;98.49
216;BME280;64590;48.81286795;9.14184224;2023-04-16T07:47:43;98442.91;;;7.30;97.55
216;BME280;64590;48.81286795;9.14184224;2023-04-16T07:50:10;98429.44;;;7.29;97.38
216;BME280;64590;48.81286795;9.14184224;2023-04-16T07:52:37;98436.56;;;7.53;96.94
216;BME280;64590;48.81286795;9.14184224;2023-04-16T07:55:07;98359.41;;;6.91;96.99
216;BME280;64590;48.81286795;9.14184224;2023-04-16T07:57:34;98445.66;;;7.30;97.41
216;BME280;64590;48.81286795;9.14184224;2023-04-16T08:00:00;98436.00;;;7.21;97.30
216;BME280;64590;48.81286795;9.14184224;2023-04-16T08:02:38;98444.91;;;7.33;97.19
216;BME280;64590;48.81286795;9.14184224;2023-04-16T08:05:06;98445.34;;;7.35;96.81
216;BME280;64590;48.81286795;9.14184224;2023-04-16T08:07:32;98450.84;;;7.35;96.84
216;BME280;64590;48.81286795;9.14184224;2023-04-16T08:09:59;98450.25;;;7.46;97.13
216;BME280;64590;48.81286795;9.14184224;2023-04-16T08:12:28;98452.41;;;7.56;96.57
216;BME280;64590;48.81286795;9.14184224;2023-04-16T08:14:55;98454.72;;;7.54;95.78
216;BME280;64590;48.81286795;9.14184224;2023-04-16T08:17:21;98450.56;;;7.41;96.16
216;BME280;64590;48.81286795;9.14184224;2023-04-16T08:19:48;98461.00;;;7.51;96.10
216;BME280;64590;48.81286795;9.14184224;2023-04-16T08:22:15;98460.00;;;7.40;96.21
216;BME280;64590;48.81286795;9.14184224;2023-04-16T08:24:42;98473.56;;;7.48;96.03
216;BME280;64590;48.81286795;9.14184224;2023-04-16T08:27:08;98467.97;;;7.45;96.14
216;BME280;64590;48.81286795;9.14184224;2023-04-16T08:29:37;98477.00;;;7.42;96.19
216;BME280;64590;48.81286795;9.14184224;2023-04-16T08:32:04;98473.91;;;7.47;95.80
216;BME280;64590;48.81286795;9.14184224;2023-04-16T08:34:31;98474.84;;;7.54;96.05
216;BME280;64590;48.81286795;9.14184224;2023-04-16T08:36:57;98478.41;;;7.55;96.05
216;BME280;64590;48.81286795;9.14184224;2023-04-16T08:39:24;98484.81;;;7.59;95.37
216;BME280;64590;48.81286795;9.14184224;2023-04-16T08:41:52;98486.00;;;7.61;95.43
216;BME280;64590;48.81286795;9.14184224;2023-04-16T08:44:24;98484.25;;;7.50;95.03
216;BME280;64590;48.81286795;9.14184224;2023-04-16T08:46:54;98492.03;;;7.44;96.18
216;BME280;64590;48.81286795;9.14184224;2023-04-16T08:49:23;98489.78;;;7.50;96.17
216;BME280;64590;48.81286795;9.14184224;2023-04-16T08:51:51;98493.75;;;7.52;95.62
216;BME280;64590;48.81286795;9.14184224;2023-04-16T08:54:27;98493.59;;;7.64;96.23
216;BME280;64590;48.81286795;9.14184224;2023-04-16T08:56:57;98493.34;;;7.73;95.46
216;BME280;64590;48.81286795;9.14184224;2023-04-16T08:59:24;98490.88;;;7.68;95.97
216;BME280;64590;48.81286795;9.14184224;2023-04-16T09:01:55;98510.03;;;7.57;95.26
216;BME280;64590;48.81286795;9.14184224;2023-04-16T09:04:25;98507.69;;;7.59;96.14
216;BME280;64590;48.81286795;9.14184224;2023-04-16T09:06:53;98500.69;;;7.65;95.04
216;BME280;64590;48.81286795;9.14184224;2023-04-16T09:09:20;98501.16;;;7.71;95.89
216;BME280;64590;48.81286795;9.14184224;2023-04-16T09:11:49;98504.69;;;7.68;96.10
216;BME280;64590;48.81286795;9.14184224;2023-04-16T09:14:16;98511.56;;;7.78;95.80
216;BME280;64590;48.81286795;9.14184224;2023-04-16T09:16:44;98513.88;;;7.76;94.67
216;BME280;64590;48.81286795;9.14184224;2023-04-16T09:19:12;98511.78;;;7.92;95.38
216;BME280;64590;48.81286795;9.14184224;2023-04-16T09:21:39;98514.81;;;7.83;95.26
216;BME280;64590;48.81286795;9.14184224;2023-04-16T09:24:07;98508.22;;;7.91;95.12
216;BME280;64590;48.81286795;9.14184224;2023-04-16T09:26:34;98513.50;;;7.77;95.15
216;BME280;64590;48.81286795;9.14184224;2023-04-16T09:29:01;98514.34;;;7.81;94.85
216;BME280;64590;48.81286795;9.14184224;2023-04-16T09:31:28;98511.28;;;7.86;94.83
216;BME280;64590;48.81286795;9.14184224;2023-04-16T09:34:02;98510.13;;;7.87;94.88
216;BME280;64590;48.81286795;9.14184224;2023-04-16T09:39:17;98518.91;;;7.93;94.36
216;BME280;64590;48.81286795;9.14184224;2023-04-16T09:41:44;98517.88;;;7.78;94.16
216;BME280;64590;48.81286795;9.14184224;2023-04-16T09:44:12;98517.13;;;7.81;94.75
216;BME280;64590;48.81286795;9.14184224;2023-04-16T09:46:40;98522.03;;;7.91;94.36
216;BME280;64590;48.81286795;9.14184224;2023-04-16T09:49:07;98523.50;;;8.08;94.54
216;BME280;64590;48.81286795;9.14184224;2023-04-16T09:51:37;98529.81;;;8.09;94.45
216;BME280;64590;48.81286795;9.14184224;2023-04-16T09:54:07;98522.72;;;7.85;93.83
216;BME280;64590;48.81286795;9.14184224;2023-04-16T09:56:38;98522.59;;;7.78;94.04
216;BME280;64590;48.81286795;9.14184224;2023-04-16T09:59:06;98527.63;;;7.95;93.60
216;BME280;64590;48.81286795;9.14184224;2023-04-16T10:01:35;98538.63;;;7.91;93.59
216;BME280;64590;48.81286795;9.14184224;2023-04-16T10:04:05;98537.38;;;7.89;93.50
216;BME280;64590;48.81286795;9.14184224;2023-04-16T10:06:32;98543.03;;;7.96;94.29
216;BME280;64590;48.81286795;9.14184224;2023-04-16T10:08:58;98535.13;;;7.94;93.74
216;BME280;64590;48.81286795;9.14184224;2023-04-16T10:11:26;98534.25;;;7.90;94.42
216;BME280;64590;48.81286795;9.14184224;2023-04-16T10:13:53;98543.19;;;8.07;94.30
216;BME280;64590;48.81286795;9.14184224;2023-04-16T10:16:21;98542.28;;;7.99;94.40
216;BME280;64590;48.81286795;9.14184224;2023-04-16T10:18:48;98549.06;;;8.02;94.63
216;BME280;64590;48.81286795;9.14184224;2023-04-16T10:21:14;98544.69;;;8.01;94.51
216;BME280;64590;48.81286795;9.14184224;2023-04-16T10:23:42;98552.28;;;8.07;93.64
216;BME280;64590;48.81286795;9.14184224;2023-04-16T10:26:09;98559.06;;;8.10;94.22
216;BME280;64590;48.81286795;9.14184224;2023-04-16T10:28:36;98558.69;;;8.11;93.97
216;BME280;64590;48.81286795;9.14184224;2023-04-16T10:31:07;98557.34;;;8.02;94.12
216;BME280;64590;48.81286795;9.14184224;2023-04-16T10:33:35;98552.78;;;7.90;94.67
216;BME280;64590;48.81286795;9.14184224;2023-04-16T10:36:09;98555.50;;;8.09;94.72
216;BME280;64590;48.81286795;9.14184224;2023-04-16T10:38:40;98555.81;;;8.04;94.19
216;BME280;64590;48.81286795;9.14184224;2023-04-16T10:41:07;98558.69;;;8.11;94.76
216;BME280;64590;48.81286795;9.14184224;2023-04-16T10:43:42;98560.16;;;8.05;94.47
216;BME280;64590;48.81286795;9.14184224;2023-04-16T10:46:22;98561.03;;;8.09;94.69
216;BME280;64590;48.81286795;9.14184224;2023-04-16T10:48:50;98553.09;;;8.08;94.53
216;BME280;64590;48.81286795;9.14184224;2023-04-16T10:51:27;98557.94;;;8.14;94.93
216;BME280;64590;48.81286795;9.14184224;2023-04-16T10:53:54;98536.88;;;8.06;94.58
216;BME280;64590;48.81286795;9.14184224;2023-04-16T10:56:22;98551.72;;;8.21;95.27
216;BME280;64590;48.81286795;9.14184224;2023-04-16T10:58:52;98547.63;;;8.11;94.19
216;BME280;64590;48.81286795;9.14184224;2023-04-16T11:01:28;98553.56;;;8.13;94.84
216;BME280;64590;48.81286795;9.14184224;2023-04-16T11:03:55;98538.66;;;8.18;94.97
216;BME280;64590;48.81286795;9.14184224;2023-04-16T11:06:23;98555.53;;;8.13;93.92
216;BME280;64590;48.81286795;9.14184224;2023-04-16T11:08:51;98557.94;;;8.14;93.83
216;BME280;64590;48.81286795;9.14184224;2023-04-16T11:11:18;98559.84;;;8.10;94.22
216;BME280;64590;48.81286795;9.14184224;2023-04-16T11:13:45;98558.53;;;8.01;95.47
216;BME280;64590;48.81286795;9.14184224;2023-04-16T11:16:14;98560.66;;;8.11;96.00
216;BME280;64590;48.81286795;9.14184224;2023-04-16T11:18:44;98555.13;;;8.11;95.57
216;BME280;64590;48.81286795;9.14184224;2023-04-16T11:21:11;98559.25;;;8.24;95.68
216;BME280;64590;48.81286795;9.14184224;2023-04-16T11:23:45;98565.97;;;8.23;94.93
216;BME280;64590;48.81286795;9.14184224;2023-04-16T11:26:27;98563.84;;;8.13;95.68
216;BME280;64590;48.81286795;9.14184224;2023-04-16T11:28:55;98572.50;;;8.11;95.12
216;BME280;64590;48.81286795;9.14184224;2023-04-16T11:31:24;98570.25;;;7.94;95.10
216;BME280;64590;48.81286795;9.14184224;2023-04-16T11:33:51;98569.88;;;7.96;95.83
216;BME280;64590;48.81286795;9.14184224;2023-04-16T11:36:18;98559.69;;;8.00;96.43
216;BME280;64590;48.81286795;9.14184224;2023-04-16T11:38:45;98567.81;;;8.15;96.28
216;BME280;64590;48.81286795;9.14184224;2023-04-16T11:41:18;98561.59;;;8.22;94.61
216;BME280;64590;48.81286795;9.14184224;2023-04-16T11:43:46;98570.16;;;8.13;96.01
216;BME280;64590;48.81286795;9.14184224;2023-04-16T11:46:12;98563.59;;;8.21;96.05
216;BME280;64590;48.81286795;9.14184224;2023-04-16T11:48:47;98563.84;;;8.13;95.65
216;BME280;64590;48.81286795;9.14184224;2023-04-16T11:51:14;98562.78;;;8.21;96.50
216;BME280;64590;48.81286795;9.14184224;2023-04-16T11:53:45;98565.38;;;8.10;96.40
216;BME280;64590;48.81286795;9.14184224;2023-04-16T11:56:13;98570.84;;;8.07;96.61
216;BME280;64590;48.81286795;9.14184224;2023-04-16T11:58:40;98578.19;;;8.22;96.17